createdAt,value
2019-04-05T00:00:40.186Z,177.50
2019-04-05T00:01:40.157Z,172.60
2019-04-05T00:02:40.128Z,175.90
2019-04-05T00:03:40.097Z,174.70
2019-04-05T00:04:40.071Z,168.60
2019-04-05T00:05:40.042Z,179.90
2019-04-05T00:06:40.012Z,174.10
2019-04-05T00:07:39.984Z,175.00
2019-04-05T00:08:39.957Z,187.10
2019-04-05T00:09:39.931Z,176.20
2019-04-05T00:10:39.898Z,181.80
2019-04-05T00:11:39.871Z,180.70
2019-04-05T00:12:39.839Z,179.30
2019-04-05T00:13:39.808Z,185.10
2019-04-05T00:14:39.779Z,173.00
2019-04-05T00:15:39.751Z,192.50
2019-04-05T00:16:39.723Z,170.90
2019-04-05T00:17:39.693Z,178.70
2019-04-05T00:18:39.665Z,181.20
2019-04-05T00:19:39.638Z,189.10
2019-04-05T00:20:39.607Z,187.70
2019-04-05T00:21:39.578Z,163.00
2019-04-05T00:22:39.548Z,169.30
2019-04-05T00:23:39.519Z,181.10
2019-04-05T00:24:39.491Z,174.40
2019-04-05T00:25:39.465Z,181.50
2019-04-05T00:26:39.432Z,183.90
2019-04-05T00:27:39.403Z,176.60
2019-04-05T00:28:39.372Z,195.30
2019-04-05T00:29:39.347Z,191.70
2019-04-05T00:30:39.317Z,187.90
2019-04-05T00:31:39.285Z,195.20
2019-04-05T00:32:39.258Z,193.40
2019-04-05T00:33:39.228Z,210.20
2019-04-05T00:34:39.201Z,198.30
2019-04-05T00:35:39.170Z,199.30
2019-04-05T00:36:39.142Z,214.40
2019-04-05T00:37:39.113Z,224.10
2019-04-05T00:38:39.085Z,241.50
2019-04-05T00:39:39.056Z,232.40
2019-04-05T00:40:39.026Z,223.90
2019-04-05T00:41:39.000Z,231.90
2019-04-05T00:42:38.968Z,232.50
2019-04-05T00:43:38.939Z,230.30
2019-04-05T00:44:38.908Z,226.50
2019-04-05T00:45:38.885Z,244.50
2019-04-05T00:46:38.850Z,237.90
2019-04-05T00:47:38.822Z,228.70
2019-04-05T00:48:38.792Z,226.30
2019-04-05T00:49:38.764Z,247.90
2019-04-05T00:50:38.739Z,229.40
2019-04-05T00:51:38.704Z,240.10
2019-04-05T00:52:38.677Z,228.50
2019-04-05T00:53:38.646Z,206.00
2019-04-05T00:54:38.618Z,226.10
2019-04-05T00:55:38.588Z,244.30
2019-04-05T00:56:38.562Z,237.80
2019-04-05T00:57:38.531Z,239.80
2019-04-05T00:58:38.501Z,214.90
2019-04-05T00:59:38.473Z,196.20
2019-04-05T01:00:38.443Z,231.70
2019-04-05T01:01:38.413Z,220.70
2019-04-05T01:02:38.385Z,222.70
2019-04-05T01:03:38.356Z,206.50
2019-04-05T01:04:38.325Z,228.10
2019-04-05T01:05:38.296Z,194.10
2019-04-05T01:06:38.266Z,198.90
2019-04-05T01:07:38.238Z,207.00
2019-04-05T01:08:38.210Z,210.90
2019-04-05T01:09:38.179Z,221.70
2019-04-05T01:10:38.149Z,214.20
2019-04-05T01:11:38.122Z,207.50
2019-04-05T01:12:38.093Z,206.00
2019-04-05T01:13:38.063Z,200.40
2019-04-05T01:14:38.033Z,197.30
2019-04-05T01:15:41.123Z,195.00
2019-04-05T01:16:37.977Z,185.80
2019-04-05T01:17:37.956Z,203.20
2019-04-05T01:18:37.919Z,185.90
2019-04-05T01:19:37.887Z,189.10
2019-04-05T01:20:37.861Z,183.70
2019-04-05T01:21:37.830Z,186.20
2019-04-05T01:22:37.804Z,188.60
2019-04-05T01:23:37.771Z,176.90
2019-04-05T01:24:37.746Z,195.90
2019-04-05T01:25:37.715Z,185.80
2019-04-05T01:26:37.684Z,182.60
2019-04-05T01:27:37.656Z,178.20
2019-04-05T01:28:37.627Z,174.80
2019-04-05T01:29:37.597Z,184.40
2019-04-05T01:30:37.570Z,187.10
2019-04-05T01:31:37.540Z,194.10
2019-04-05T01:32:37.513Z,188.20
2019-04-05T01:33:37.482Z,186.10
2019-04-05T01:34:37.455Z,183.30
2019-04-05T01:35:37.426Z,188.20
2019-04-05T01:36:37.397Z,179.60
2019-04-05T01:37:37.366Z,175.30
2019-04-05T01:38:37.340Z,188.70
2019-04-05T01:39:37.311Z,200.60
2019-04-05T01:40:37.283Z,189.20
2019-04-05T01:41:37.254Z,188.90
2019-04-05T01:42:37.225Z,187.80
2019-04-05T01:43:37.197Z,201.20
2019-04-05T01:44:37.169Z,186.40
2019-04-05T01:45:37.138Z,182.60
2019-04-05T01:46:37.112Z,187.60
2019-04-05T01:47:37.084Z,190.60
2019-04-05T01:48:37.053Z,194.90
2019-04-05T01:49:37.025Z,186.10
2019-04-05T01:50:36.997Z,192.70
2019-04-05T01:51:36.967Z,188.50
2019-04-05T01:52:36.939Z,193.40
2019-04-05T01:53:36.908Z,192.90
2019-04-05T01:54:36.881Z,184.40
2019-04-05T01:55:36.853Z,182.70
2019-04-05T01:56:36.825Z,194.70
2019-04-05T01:57:36.794Z,200.20
2019-04-05T01:58:36.768Z,204.90
2019-04-05T01:59:36.739Z,191.40
2019-04-05T02:00:36.711Z,192.10
2019-04-05T02:01:36.682Z,199.60
2019-04-05T02:02:36.652Z,204.90
2019-04-05T02:03:36.624Z,197.00
2019-04-05T02:04:36.596Z,192.00
2019-04-05T02:05:36.566Z,211.00
2019-04-05T02:06:36.538Z,216.90
2019-04-05T02:07:36.509Z,221.90
2019-04-05T02:08:36.483Z,219.30
2019-04-05T02:09:36.452Z,215.10
2019-04-05T02:10:36.424Z,205.50
2019-04-05T02:11:36.395Z,210.50
2019-04-05T02:12:36.366Z,216.00
2019-04-05T02:13:36.338Z,220.10
2019-04-05T02:14:36.311Z,216.50
2019-04-05T02:15:36.280Z,227.40
2019-04-05T02:16:36.252Z,231.20
2019-04-05T02:17:36.228Z,234.70
2019-04-05T02:18:36.194Z,215.20
2019-04-05T02:19:36.167Z,214.90
2019-04-05T02:20:36.138Z,231.40
2019-04-05T02:21:36.109Z,209.60
2019-04-05T02:22:36.080Z,235.70
2019-04-05T02:23:36.051Z,254.10
2019-04-05T02:24:36.024Z,230.50
2019-04-05T02:25:35.993Z,230.90
2019-04-05T02:26:35.966Z,237.70
2019-04-05T02:27:35.939Z,239.80
2019-04-05T02:28:35.910Z,229.50
2019-04-05T02:29:35.879Z,235.40
2019-04-05T02:30:35.852Z,235.50
2019-04-05T02:31:35.824Z,237.60
2019-04-05T02:32:35.807Z,234.00
2019-04-05T02:33:35.770Z,235.20
2019-04-05T02:34:35.746Z,227.00
2019-04-05T02:35:38.965Z,220.30
2019-04-05T02:36:35.693Z,230.10
2019-04-05T02:37:35.663Z,233.90
2019-04-05T02:38:35.625Z,237.40
2019-04-05T02:39:35.599Z,240.70
2019-04-05T02:40:35.576Z,230.80
2019-04-05T02:41:35.547Z,239.10
2019-04-05T02:42:35.508Z,241.40
2019-04-05T02:43:35.479Z,246.20
2019-04-05T02:44:35.452Z,239.10
2019-04-05T02:45:35.423Z,240.70
2019-04-05T02:46:35.398Z,236.40
2019-04-05T02:47:35.362Z,233.30
2019-04-05T02:48:35.343Z,227.20
2019-04-05T02:49:35.312Z,220.70
2019-04-05T02:50:35.277Z,220.50
2019-04-05T02:51:35.250Z,216.00
2019-04-05T02:52:35.222Z,204.10
2019-04-05T02:53:35.192Z,212.50
2019-04-05T02:54:35.164Z,214.70
2019-04-05T02:55:35.135Z,213.20
2019-04-05T02:56:35.107Z,221.40
2019-04-05T02:57:35.080Z,204.90
2019-04-05T02:58:35.049Z,210.30
2019-04-05T02:59:35.021Z,207.60
2019-04-05T03:00:34.999Z,205.60
2019-04-05T03:01:34.962Z,204.60
2019-04-05T03:02:34.934Z,209.30
2019-04-05T03:03:34.904Z,201.00
2019-04-05T03:04:34.877Z,213.20
2019-04-05T03:05:34.848Z,207.70
2019-04-05T03:06:34.817Z,216.30
2019-04-05T03:07:34.794Z,222.20
2019-04-05T03:08:34.763Z,226.70
2019-04-05T03:09:34.731Z,215.00
2019-04-05T03:10:34.707Z,210.30
2019-04-05T03:11:34.673Z,205.30
2019-04-05T03:12:34.649Z,215.60
2019-04-05T03:13:34.623Z,215.50
2019-04-05T03:14:34.590Z,213.50
2019-04-05T03:15:34.561Z,215.00
2019-04-05T03:16:41.140Z,221.30
2019-04-05T03:17:34.502Z,206.80
2019-04-05T03:18:34.500Z,212.20
2019-04-05T03:19:34.449Z,216.20
2019-04-05T03:20:34.417Z,229.70
2019-04-05T03:21:34.388Z,218.90
2019-04-05T03:22:34.360Z,225.80
2019-04-05T03:23:34.330Z,219.30
2019-04-05T03:24:34.304Z,227.60
2019-04-05T03:25:34.275Z,226.70
2019-04-05T03:26:34.248Z,224.50
2019-04-05T03:27:34.221Z,218.20
2019-04-05T03:28:34.188Z,219.00
2019-04-05T03:29:34.162Z,207.60
2019-04-05T03:30:34.132Z,227.60
2019-04-05T03:31:34.103Z,221.80
2019-04-05T03:32:34.075Z,219.20
2019-04-05T03:33:34.044Z,209.80
2019-04-05T03:34:34.030Z,213.30
2019-04-05T03:35:33.990Z,205.40
2019-04-05T03:36:33.961Z,200.40
2019-04-05T03:37:33.931Z,213.00
2019-04-05T03:38:33.902Z,221.00
2019-04-05T03:39:33.874Z,212.20
2019-04-05T03:40:33.844Z,214.70
2019-04-05T03:41:33.818Z,203.80
2019-04-05T03:42:33.785Z,211.30
2019-04-05T03:43:33.760Z,213.30
2019-04-05T03:44:33.730Z,212.60
2019-04-05T03:45:33.703Z,202.50
2019-04-05T03:46:33.673Z,202.70
2019-04-05T03:47:33.646Z,209.90
2019-04-05T03:48:33.617Z,214.20
2019-04-05T03:49:33.588Z,209.70
2019-04-05T03:50:33.564Z,212.90
2019-04-05T03:51:33.536Z,209.20
2019-04-05T03:52:33.502Z,198.10
2019-04-05T03:53:33.474Z,199.90
2019-04-05T03:54:33.446Z,207.60
2019-04-05T03:55:33.416Z,194.20
2019-04-05T03:56:33.453Z,196.20
2019-04-05T03:57:33.366Z,211.50
2019-04-05T03:58:33.334Z,197.30
2019-04-05T03:59:33.305Z,193.40
2019-04-05T04:00:33.276Z,203.60
2019-04-05T04:01:33.247Z,205.40
2019-04-05T04:02:33.231Z,192.90
2019-04-05T04:03:33.190Z,205.70
2019-04-05T04:04:33.160Z,196.70
2019-04-05T04:05:33.131Z,200.90
2019-04-05T04:06:33.107Z,195.70
2019-04-05T04:07:33.078Z,198.10
2019-04-05T04:08:33.060Z,193.20
2019-04-05T04:09:33.016Z,190.30
2019-04-05T04:10:32.990Z,192.10
2019-04-05T04:11:32.961Z,187.10
2019-04-05T04:12:32.934Z,193.40
2019-04-05T04:13:32.905Z,196.80
2019-04-05T04:14:32.877Z,193.50
2019-04-05T04:15:32.848Z,196.60
2019-04-05T04:16:32.835Z,197.90
2019-04-05T04:17:32.789Z,197.30
2019-04-05T04:18:32.765Z,186.50
2019-04-05T04:19:32.735Z,195.80
2019-04-05T04:20:32.705Z,190.50
2019-04-05T04:21:32.681Z,190.50
2019-04-05T04:22:32.651Z,202.50
2019-04-05T04:23:32.621Z,194.50
2019-04-05T04:24:32.595Z,187.20
2019-04-05T04:25:32.568Z,199.20
2019-04-05T04:26:32.534Z,195.80
2019-04-05T04:27:32.521Z,197.10
2019-04-05T04:28:32.492Z,200.40
2019-04-05T04:29:32.451Z,200.90
2019-04-05T04:30:32.423Z,196.60
2019-04-05T04:31:32.394Z,195.70
2019-04-05T04:32:32.364Z,187.30
2019-04-05T04:33:32.348Z,189.10
2019-04-05T04:34:32.338Z,190.20
2019-04-05T04:35:32.279Z,188.10
2019-04-05T04:36:32.253Z,187.80
2019-04-05T04:37:32.224Z,179.60
2019-04-05T04:38:32.208Z,187.30
2019-04-05T04:39:32.169Z,176.20
2019-04-05T04:40:32.139Z,181.20
2019-04-05T04:41:32.320Z,180.70
2019-04-05T04:42:32.090Z,190.30
2019-04-05T04:43:32.055Z,181.10
2019-04-05T04:44:32.029Z,172.90
2019-04-05T04:45:31.998Z,184.70
2019-04-05T04:46:31.969Z,180.60
2019-04-05T04:47:31.943Z,180.70
2019-04-05T04:48:31.915Z,173.50
2019-04-05T04:49:31.890Z,169.40
2019-04-05T04:50:31.857Z,169.90
2019-04-05T04:51:31.829Z,185.20
2019-04-05T04:52:31.801Z,174.70
2019-04-05T04:53:31.773Z,167.20
2019-04-05T04:54:31.746Z,176.90
2019-04-05T04:55:31.718Z,183.50
2019-04-05T04:56:31.692Z,186.00
2019-04-05T04:57:31.659Z,179.30
2019-04-05T04:58:31.632Z,174.40
2019-04-05T04:59:31.606Z,182.50
2019-04-05T05:00:31.577Z,167.60
2019-04-05T05:01:31.549Z,175.50
2019-04-05T05:02:31.522Z,176.90
2019-04-05T05:03:31.494Z,177.10
2019-04-05T05:04:31.466Z,178.40
2019-04-05T05:05:31.436Z,190.40
2019-04-05T05:06:31.410Z,180.00
2019-04-05T05:07:31.381Z,165.50
2019-04-05T05:08:31.352Z,171.70
2019-04-05T05:09:31.326Z,166.10
2019-04-05T05:10:31.298Z,166.80
2019-04-05T05:11:31.270Z,177.20
2019-04-05T05:12:31.243Z,170.80
2019-04-05T05:13:31.214Z,166.30
2019-04-05T05:14:31.185Z,176.10
2019-04-05T05:15:31.158Z,169.90
2019-04-05T05:16:31.132Z,168.90
2019-04-05T05:17:38.391Z,171.20
2019-04-05T05:18:31.075Z,165.90
2019-04-05T05:19:31.045Z,163.30
2019-04-05T05:20:31.018Z,159.90
2019-04-05T05:21:30.988Z,170.30
2019-04-05T05:22:30.964Z,161.70
2019-04-05T05:23:30.933Z,175.50
2019-04-05T05:24:31.034Z,163.60
2019-04-05T05:25:30.876Z,163.30
2019-04-05T05:26:30.898Z,171.60
2019-04-05T05:27:30.820Z,170.10
2019-04-05T05:28:32.775Z,167.60
2019-04-05T05:29:30.765Z,170.80
2019-04-05T05:30:30.735Z,163.20
2019-04-05T05:31:30.708Z,157.40
2019-04-05T05:32:30.684Z,164.60
2019-04-05T05:33:30.651Z,174.30
2019-04-05T05:34:30.626Z,161.00
2019-04-05T05:35:30.598Z,166.50
2019-04-05T05:36:30.571Z,160.10
2019-04-05T05:37:32.776Z,163.90
2019-04-05T05:38:30.514Z,164.50
2019-04-05T05:39:30.488Z,163.40
2019-04-05T05:40:35.226Z,161.00
2019-04-05T05:41:30.430Z,155.50
2019-04-05T05:42:30.403Z,167.00
2019-04-05T05:43:30.375Z,161.50
2019-04-05T05:44:30.350Z,151.00
2019-04-05T05:45:30.316Z,156.60
2019-04-05T05:46:30.304Z,157.10
2019-04-05T05:47:30.262Z,163.30
2019-04-05T05:48:31.042Z,154.40
2019-04-05T05:49:30.207Z,152.50
2019-04-05T05:50:30.183Z,153.60
2019-04-05T05:51:30.152Z,147.60
2019-04-05T05:52:30.125Z,153.10
2019-04-05T05:53:30.096Z,155.60
2019-04-05T05:54:30.071Z,153.60
2019-04-05T05:55:30.367Z,148.90
2019-04-05T05:56:30.013Z,149.90
2019-04-05T05:57:29.987Z,144.50
2019-04-05T05:58:29.958Z,153.60
2019-04-05T05:59:30.211Z,143.30
2019-04-05T06:00:31.094Z,150.00
2019-04-05T06:01:29.874Z,143.60
2019-04-05T06:02:29.848Z,148.00
2019-04-05T06:03:29.821Z,146.90
2019-04-05T06:04:29.790Z,148.60
2019-04-05T06:05:29.762Z,147.40
2019-04-05T06:06:29.734Z,144.80
2019-04-05T06:07:29.708Z,143.40
2019-04-05T06:08:29.680Z,143.80
2019-04-05T06:09:29.654Z,144.10
2019-04-05T06:10:29.624Z,137.80
2019-04-05T06:11:29.596Z,135.40
2019-04-05T06:12:29.569Z,142.30
2019-04-05T06:13:29.541Z,139.20
2019-04-05T06:14:29.514Z,141.50
2019-04-05T06:15:29.487Z,144.80
2019-04-05T06:16:29.461Z,144.70
2019-04-05T06:17:29.431Z,148.00
2019-04-05T06:18:29.404Z,142.00
2019-04-05T06:19:29.377Z,149.80
2019-04-05T06:20:29.350Z,141.70
2019-04-05T06:21:29.321Z,142.50
2019-04-05T06:22:29.292Z,151.50
2019-04-05T06:23:33.826Z,148.40
2019-04-05T06:24:29.237Z,143.00
2019-04-05T06:25:29.211Z,135.90
2019-04-05T06:26:29.182Z,137.00
2019-04-05T06:27:29.158Z,144.40
2019-04-05T06:28:29.195Z,150.50
2019-04-05T06:29:29.099Z,141.60
2019-04-05T06:30:29.199Z,142.90
2019-04-05T06:31:29.044Z,144.60
2019-04-05T06:32:29.018Z,151.30
2019-04-05T06:33:31.787Z,146.50
2019-04-05T06:34:28.963Z,144.70
2019-04-05T06:35:28.939Z,139.50
2019-04-05T06:36:28.906Z,145.80
2019-04-05T06:37:28.879Z,141.40
2019-04-05T06:38:28.852Z,130.10
2019-04-05T06:39:28.824Z,138.00
2019-04-05T06:40:40.239Z,131.50
2019-04-05T06:41:28.768Z,133.50
2019-04-05T06:42:28.741Z,140.00
2019-04-05T06:43:28.715Z,126.70
2019-04-05T06:44:28.692Z,132.70
2019-04-05T06:45:28.656Z,129.50
2019-04-05T06:46:28.631Z,129.10
2019-04-05T06:47:28.602Z,131.60
2019-04-05T06:48:29.545Z,130.90
2019-04-05T06:49:28.553Z,130.00
2019-04-05T06:50:28.522Z,131.30
2019-04-05T06:51:28.497Z,127.10
2019-04-05T06:52:28.467Z,128.40
2019-04-05T06:53:28.440Z,122.60
2019-04-05T06:54:28.411Z,128.60
2019-04-05T06:55:28.386Z,121.40
2019-04-05T06:56:28.357Z,131.70
2019-04-05T06:57:28.481Z,125.30
2019-04-05T06:58:29.539Z,136.40
2019-04-05T06:59:28.277Z,126.60
2019-04-05T07:00:28.248Z,126.40
2019-04-05T07:01:28.222Z,122.80
2019-04-05T07:02:28.193Z,127.70
2019-04-05T07:03:28.169Z,123.80
2019-04-05T07:04:30.858Z,124.70
2019-04-05T07:05:28.120Z,124.20
2019-04-05T07:06:28.089Z,123.00
2019-04-05T07:07:28.058Z,125.00
2019-04-05T07:08:28.032Z,127.40
2019-04-05T07:09:28.005Z,113.30
2019-04-05T07:10:27.977Z,124.30
2019-04-05T07:11:27.949Z,120.10
2019-04-05T07:12:27.924Z,123.50
2019-04-05T07:13:27.900Z,120.80
2019-04-05T07:14:27.868Z,116.90
2019-04-05T07:15:27.842Z,119.00
2019-04-05T07:16:27.815Z,120.40
2019-04-05T07:17:27.787Z,125.50
2019-04-05T07:18:35.532Z,117.80
2019-04-05T07:19:27.732Z,116.80
2019-04-05T07:20:27.707Z,110.60
2019-04-05T07:21:27.675Z,114.60
2019-04-05T07:22:38.529Z,113.90
2019-04-05T07:23:27.624Z,109.90
2019-04-05T07:24:27.600Z,111.80
2019-04-05T07:25:29.375Z,125.40
2019-04-05T07:26:27.542Z,108.70
2019-04-05T07:27:27.513Z,107.40
2019-04-05T07:28:27.487Z,103.10
2019-04-05T07:29:27.467Z,108.30
2019-04-05T07:30:28.828Z,108.60
2019-04-05T07:31:27.406Z,107.80
2019-04-05T07:32:27.379Z,107.80
2019-04-05T07:33:27.354Z,105.00
2019-04-05T07:34:27.324Z,107.50
2019-04-05T07:35:33.311Z,104.20
2019-04-05T07:36:27.272Z,109.80
2019-04-05T07:37:27.244Z,109.90
2019-04-05T07:38:27.218Z,107.60
2019-04-05T07:39:27.191Z,105.40
2019-04-05T07:40:27.163Z,100.90
2019-04-05T07:41:27.137Z,103.20
2019-04-05T07:42:27.166Z,99.80
2019-04-05T07:43:27.082Z,101.90
2019-04-05T07:44:27.056Z,104.30
2019-04-05T07:45:27.030Z,100.20
2019-04-05T07:46:27.004Z,99.70
2019-04-05T07:47:26.975Z,99.90
2019-04-05T07:48:26.947Z,102.20
2019-04-05T07:49:26.922Z,103.60
2019-04-05T07:50:26.894Z,102.70
2019-04-05T07:51:26.869Z,102.40
2019-04-05T07:52:26.842Z,102.90
2019-04-05T07:53:26.815Z,103.50
2019-04-05T07:54:26.787Z,100.40
2019-04-05T07:55:26.762Z,99.00
2019-04-05T07:56:26.734Z,104.60
2019-04-05T07:57:26.709Z,106.00
2019-04-05T07:58:26.682Z,104.50
2019-04-05T07:59:26.657Z,102.50
2019-04-05T08:00:26.630Z,102.10
2019-04-05T08:01:26.604Z,103.20
2019-04-05T08:02:26.575Z,107.20
2019-04-05T08:03:26.550Z,108.90
2019-04-05T08:04:26.524Z,100.30
2019-04-05T08:05:26.498Z,103.50
2019-04-05T08:06:26.470Z,104.10
2019-04-05T08:07:26.443Z,100.60
2019-04-05T08:08:26.421Z,101.20
2019-04-05T08:09:26.389Z,100.20
2019-04-05T08:10:26.363Z,105.40
2019-04-05T08:11:26.339Z,107.90
2019-04-05T08:12:26.313Z,103.70
2019-04-05T08:13:26.284Z,107.70
2019-04-05T08:14:26.262Z,105.90
2019-04-05T08:15:26.234Z,114.60
2019-04-05T08:16:26.207Z,108.80
2019-04-05T08:17:26.177Z,105.70
2019-04-05T08:18:26.151Z,102.90
2019-04-05T08:19:26.124Z,102.10
2019-04-05T08:20:26.100Z,107.20
2019-04-05T08:21:26.073Z,104.70
2019-04-05T08:22:26.046Z,106.60
2019-04-05T08:23:26.020Z,105.50
2019-04-05T08:24:25.994Z,103.30
2019-04-05T08:25:25.965Z,104.80
2019-04-05T08:26:25.940Z,102.60
2019-04-05T08:27:25.915Z,105.50
2019-04-05T08:28:25.888Z,100.10
2019-04-05T08:29:25.862Z,103.60
2019-04-05T08:30:25.836Z,100.80
2019-04-05T08:31:25.808Z,101.00
2019-04-05T08:32:25.783Z,102.40
2019-04-05T08:33:25.756Z,106.50
2019-04-05T08:34:25.747Z,101.60
2019-04-05T08:35:25.702Z,104.00
2019-04-05T08:36:25.677Z,105.20
2019-04-05T08:37:25.650Z,104.80
2019-04-05T08:38:25.626Z,100.30
2019-04-05T08:39:25.602Z,95.10
2019-04-05T08:40:25.573Z,103.80
2019-04-05T08:41:25.557Z,96.10
2019-04-05T08:42:25.521Z,97.30
2019-04-05T08:43:25.493Z,101.80
2019-04-05T08:44:25.469Z,98.90
2019-04-05T08:45:25.443Z,101.50
2019-04-05T08:46:25.417Z,99.30
2019-04-05T08:47:25.393Z,102.80
2019-04-05T08:48:25.365Z,103.90
2019-04-05T08:49:25.337Z,99.60
2019-04-05T08:50:25.312Z,94.70
2019-04-05T08:51:25.287Z,94.00
2019-04-05T08:52:27.010Z,96.70
2019-04-05T08:53:25.235Z,90.50
2019-04-05T08:54:32.489Z,95.50
2019-04-05T08:55:25.183Z,96.50
2019-04-05T08:56:25.158Z,93.80
2019-04-05T08:57:25.130Z,97.30
2019-04-05T08:58:33.349Z,98.30
2019-04-05T08:59:25.081Z,94.30
2019-04-05T09:00:25.055Z,96.20
2019-04-05T09:01:25.030Z,94.60
2019-04-05T09:02:25.003Z,97.10
2019-04-05T09:03:24.978Z,92.30
2019-04-05T09:04:24.953Z,98.20
2019-04-05T09:05:24.925Z,92.60
2019-04-05T09:06:24.903Z,88.70
2019-04-05T09:07:24.875Z,88.90
2019-04-05T09:08:24.857Z,97.60
2019-04-05T09:09:24.821Z,91.60
2019-04-05T09:10:24.799Z,93.40
2019-04-05T09:11:24.772Z,94.90
2019-04-05T09:12:24.749Z,90.30
2019-04-05T09:13:24.721Z,90.50
2019-04-05T09:14:24.696Z,90.40
2019-04-05T09:15:24.669Z,92.00
2019-04-05T09:16:24.650Z,95.80
2019-04-05T09:17:24.619Z,91.40
2019-04-05T09:18:24.593Z,96.10
2019-04-05T09:19:24.571Z,91.80
2019-04-05T09:20:24.541Z,94.70
2019-04-05T09:21:24.517Z,93.00
2019-04-05T09:22:24.492Z,96.20
2019-04-05T09:23:24.488Z,90.90
2019-04-05T09:24:24.443Z,89.30
2019-04-05T09:25:24.414Z,91.60
2019-04-05T09:26:24.394Z,93.10
2019-04-05T09:27:24.366Z,88.00
2019-04-05T09:28:24.341Z,89.40
2019-04-05T09:29:24.316Z,88.10
2019-04-05T09:30:24.291Z,89.50
2019-04-05T09:31:24.267Z,86.80
2019-04-05T09:32:24.244Z,90.10
2019-04-05T09:33:24.225Z,87.10
2019-04-05T09:34:24.193Z,87.70
2019-04-05T09:35:24.169Z,87.40
2019-04-05T09:36:24.142Z,86.70
2019-04-05T09:37:24.118Z,88.00
2019-04-05T09:38:24.096Z,86.20
2019-04-05T09:39:24.071Z,89.20
2019-04-05T09:40:24.047Z,83.80
2019-04-05T09:41:24.021Z,87.00
2019-04-05T09:42:23.998Z,84.40
2019-04-05T09:43:23.972Z,86.30
2019-04-05T09:44:24.039Z,82.00
2019-04-05T09:45:23.927Z,81.70
2019-04-05T09:46:23.901Z,90.10
2019-04-05T09:47:23.876Z,78.50
2019-04-05T09:48:23.852Z,82.10
2019-04-05T09:49:35.828Z,91.30
2019-04-05T09:50:23.803Z,82.90
2019-04-05T09:51:23.779Z,82.20
2019-04-05T09:52:23.755Z,87.60
2019-04-05T09:53:23.728Z,81.60
2019-04-05T09:54:23.705Z,82.50
2019-04-05T09:55:23.679Z,85.50
2019-04-05T09:56:23.656Z,89.40
2019-04-05T09:57:23.634Z,85.50
2019-04-05T09:58:23.606Z,85.90
2019-04-05T09:59:23.582Z,82.30
2019-04-05T10:00:23.558Z,89.00
2019-04-05T10:01:23.539Z,83.60
2019-04-05T10:02:23.511Z,82.00
2019-04-05T10:03:23.484Z,83.80
2019-04-05T10:04:23.461Z,84.30
2019-04-05T10:05:23.436Z,79.60
2019-04-05T10:06:23.410Z,78.60
2019-04-05T10:07:23.388Z,85.90
2019-04-05T10:08:23.370Z,80.30
2019-04-05T10:09:23.338Z,80.00
2019-04-05T10:10:23.318Z,77.10
2019-04-05T10:11:23.289Z,78.30
2019-04-05T10:12:23.265Z,78.40
2019-04-05T10:13:23.241Z,77.60
2019-04-05T10:14:23.218Z,81.30
2019-04-05T10:15:23.195Z,78.50
2019-04-05T10:16:23.174Z,75.80
2019-04-05T10:17:23.144Z,74.60
2019-04-05T10:18:23.122Z,82.30
2019-04-05T10:19:23.098Z,78.60
2019-04-05T10:20:23.074Z,80.00
2019-04-05T10:21:23.049Z,74.70
2019-04-05T10:22:23.027Z,79.40
2019-04-05T10:23:23.005Z,83.80
2019-04-05T10:24:22.979Z,78.70
2019-04-05T10:25:22.956Z,86.00
2019-04-05T10:26:22.931Z,85.30
2019-04-05T10:27:23.189Z,81.50
2019-04-05T10:28:22.884Z,82.20
2019-04-05T10:29:22.862Z,81.40
2019-04-05T10:30:22.835Z,85.00
2019-04-05T10:31:22.814Z,83.10
2019-04-05T10:32:22.788Z,80.70
2019-04-05T10:33:22.764Z,81.50
2019-04-05T10:34:22.742Z,81.60
2019-04-05T10:35:22.715Z,78.40
2019-04-05T10:36:22.696Z,78.30
2019-04-05T10:37:22.673Z,79.30
2019-04-05T10:38:22.649Z,77.90
2019-04-05T10:39:22.622Z,77.20
2019-04-05T10:40:22.599Z,77.30
2019-04-05T10:41:23.174Z,80.40
2019-04-05T10:42:22.554Z,76.20
2019-04-05T10:43:22.532Z,70.80
2019-04-05T10:44:22.509Z,76.50
2019-04-05T10:45:22.484Z,77.90
2019-04-05T10:46:22.460Z,72.90
2019-04-05T10:47:22.438Z,74.50
2019-04-05T10:48:22.415Z,76.00
2019-04-05T10:49:22.395Z,76.50
2019-04-05T10:50:22.368Z,71.30
2019-04-05T10:51:22.344Z,78.00
2019-04-05T10:52:22.324Z,76.30
2019-04-05T10:53:22.300Z,73.40
2019-04-05T10:54:22.278Z,74.60
2019-04-05T10:55:22.256Z,74.00
2019-04-05T10:56:22.232Z,73.40
2019-04-05T10:57:22.212Z,79.80
2019-04-05T10:58:22.193Z,75.50
2019-04-05T10:59:22.163Z,80.10
2019-04-05T11:00:22.141Z,78.90
2019-04-05T11:01:22.117Z,81.60
2019-04-05T11:02:22.102Z,80.90
2019-04-05T11:03:22.076Z,72.50
2019-04-05T11:04:22.049Z,75.50
2019-04-05T11:05:22.025Z,73.70
2019-04-05T11:06:22.001Z,75.40
2019-04-05T11:07:21.981Z,76.60
2019-04-05T11:08:21.960Z,76.80
2019-04-05T11:09:21.934Z,76.60
2019-04-05T11:10:21.910Z,77.50
2019-04-05T11:11:21.886Z,75.30
2019-04-05T11:12:21.867Z,79.20
2019-04-05T11:13:21.841Z,74.20
2019-04-05T11:14:21.818Z,80.20
2019-04-05T11:15:21.795Z,73.80
2019-04-05T11:16:21.776Z,77.20
2019-04-05T11:17:21.747Z,78.00
2019-04-05T11:18:21.724Z,80.00
2019-04-05T11:19:21.702Z,74.30
2019-04-05T11:20:22.222Z,77.10
2019-04-05T11:21:21.658Z,74.70
2019-04-05T11:22:21.632Z,75.80
2019-04-05T11:23:21.905Z,76.00
2019-04-05T11:24:21.587Z,79.40
2019-04-05T11:25:21.560Z,79.30
2019-04-05T11:26:21.540Z,79.10
2019-04-05T11:27:21.518Z,79.40
2019-04-05T11:28:21.492Z,80.20
2019-04-05T11:29:21.467Z,79.00
2019-04-05T11:30:21.445Z,76.00
2019-04-05T11:31:21.421Z,73.40
2019-04-05T11:32:21.400Z,75.80
2019-04-05T11:33:21.376Z,75.30
2019-04-05T11:34:21.353Z,76.10
2019-04-05T11:35:21.329Z,76.70
2019-04-05T11:36:21.307Z,75.60
2019-04-05T11:37:21.285Z,77.50
2019-04-05T11:38:24.105Z,78.10
2019-04-05T11:39:21.237Z,73.70
2019-04-05T11:40:24.026Z,79.20
2019-04-05T11:41:21.190Z,72.90
2019-04-05T11:42:21.172Z,75.10
2019-04-05T11:43:21.151Z,81.50
2019-04-05T11:44:21.118Z,75.90
2019-04-05T11:45:21.095Z,76.30
2019-04-05T11:46:21.074Z,78.50
2019-04-05T11:47:21.052Z,72.90
2019-04-05T11:48:21.028Z,77.20
2019-04-05T11:49:21.005Z,76.40
2019-04-05T11:50:33.570Z,75.90
2019-04-05T11:51:20.958Z,80.70
2019-04-05T11:52:20.936Z,75.50
2019-04-05T11:53:22.098Z,69.20
2019-04-05T11:54:20.891Z,71.30
2019-04-05T11:55:20.870Z,75.80
2019-04-05T11:56:20.849Z,71.90
2019-04-05T11:57:20.822Z,71.60
2019-04-05T11:58:20.801Z,73.80
2019-04-05T11:59:20.776Z,66.70
2019-04-05T12:00:20.754Z,72.40
2019-04-05T12:01:23.368Z,73.40
2019-04-05T12:02:20.711Z,68.80
2019-04-05T12:03:20.695Z,74.10
2019-04-05T12:04:20.664Z,73.70
2019-04-05T12:05:22.865Z,77.30
2019-04-05T12:06:20.620Z,71.40
2019-04-05T12:07:24.044Z,66.80
2019-04-05T12:08:20.575Z,72.00
2019-04-05T12:09:20.550Z,75.50
2019-04-05T12:10:20.531Z,75.60
2019-04-05T12:11:20.507Z,73.40
2019-04-05T12:12:20.487Z,74.60
2019-04-05T12:13:20.461Z,78.10
2019-04-05T12:14:29.947Z,76.50
2019-04-05T12:15:20.417Z,77.70
2019-04-05T12:16:20.396Z,73.50
2019-04-05T12:17:20.390Z,78.20
2019-04-05T12:18:20.349Z,76.80
2019-04-05T12:19:20.327Z,79.70
2019-04-05T12:20:20.306Z,78.10
2019-04-05T12:21:20.995Z,77.60
2019-04-05T12:22:20.260Z,73.90
2019-04-05T12:23:20.234Z,78.20
2019-04-05T12:24:20.215Z,80.60
2019-04-05T12:25:20.190Z,77.70
2019-04-05T12:26:20.167Z,75.70
2019-04-05T12:27:20.888Z,75.50
2019-04-05T12:28:20.128Z,76.30
2019-04-05T12:29:20.098Z,72.60
2019-04-05T12:30:20.075Z,68.80
2019-04-05T12:31:20.053Z,70.30
2019-04-05T12:32:32.519Z,74.30
2019-04-05T12:33:20.444Z,72.80
2019-04-05T12:34:22.209Z,75.70
2019-04-05T12:35:21.540Z,72.40